Time;durP1;ratioP1;P1;durP2;ratioP2;P2;SDS_P1;SDS_P2;PMS_P1;PMS_P2;Temp;Humidity;BMP_temperature;BMP_pressure;BME280_temperature;BME280_humidity;BME280_pressure;Samples;Min_cycle;Max_cycle;Signal;HPM_P1;HPM_P2
2021/04/09 00:00:05;;;;;;;14.37;8.03;;;10.50;35.90;;;;;;5033938;28;20435;-85
2021/04/09 00:02:32;;;;;;;13.70;7.23;;;10.30;33.60;;;;;;5033983;28;20520;-85
2021/04/09 00:04:58;;;;;;;13.47;7.87;;;9.90;36.90;;;;;;5033811;28;20485;-85
2021/04/09 00:07:24;;;;;;;14.50;7.80;;;9.50;35.00;;;;;;5033804;28;20425;-84
2021/04/09 00:09:51;;;;;;;19.00;7.37;;;9.70;37.70;;;;;;5033588;28;20473;-84
2021/04/09 00:12:18;;;;;;;13.13;7.53;;;9.30;37.00;;;;;;5034189;28;20480;-85
2021/04/09 00:14:45;;;;;;;14.50;7.63;;;9.60;36.10;;;;;;5034056;28;20525;-85
2021/04/09 00:17:11;;;;;;;13.83;9.03;;;10.10;35.50;;;;;;5033889;28;20515;-84
2021/04/09 00:19:38;;;;;;;13.87;7.33;;;10.30;33.20;;;;;;5034975;28;20444;-84
2021/04/09 00:22:04;;;;;;;13.07;7.47;;;10.20;34.40;;;;;;5033850;28;20935;-85
2021/04/09 00:24:30;;;;;;;17.30;8.90;;;9.90;34.80;;;;;;5033224;28;20457;-85
2021/04/09 00:26:58;;;;;;;13.93;7.20;;;9.70;34.00;;;;;;5036023;28;20958;-86
2021/04/09 00:29:26;;;;;;;10.13;7.50;;;9.50;38.00;;;;;;5040297;28;20457;-85
2021/04/09 00:31:52;;;;;;;11.13;6.77;;;9.90;38.30;;;;;;5039392;28;20540;-86
2021/04/09 00:34:18;;;;;;;13.63;7.97;;;9.60;36.60;;;;;;5040708;28;20454;-86
2021/04/09 00:36:45;;;;;;;14.50;7.10;;;9.20;35.70;;;;;;5040110;28;20496;-86
2021/04/09 00:39:11;;;;;;;13.87;7.57;;;8.90;38.00;;;;;;5040687;28;20460;-85
2021/04/09 00:41:40;;;;;;;12.57;6.73;;;8.60;39.00;;;;;;5039704;28;20505;-85
2021/04/09 00:44:08;;;;;;;17.20;7.40;;;8.60;39.40;;;;;;5040566;28;20481;-85
2021/04/09 00:46:36;;;;;;;13.23;7.03;;;8.60;38.10;;;;;;5041085;28;21034;-86
2021/04/09 00:49:05;;;;;;;12.40;7.00;;;8.50;37.80;;;;;;5043209;28;20461;-85
2021/04/09 00:51:31;;;;;;;16.73;8.10;;;8.40;40.50;;;;;;5047368;28;20441;-85
2021/04/09 00:53:59;;;;;;;10.70;7.00;;;8.40;38.00;;;;;;5046000;28;20477;-85
2021/04/09 00:56:28;;;;;;;10.43;6.60;;;8.60;39.00;;;;;;5044233;28;20480;-85
2021/04/09 00:58:56;;;;;;;12.23;7.20;;;8.80;39.20;;;;;;5048529;28;20854;-85
2021/04/09 01:01:24;;;;;;;17.73;8.13;;;8.80;38.70;;;;;;5051903;28;20834;-85
2021/04/09 01:03:52;;;;;;;8.70;6.00;;;8.60;38.80;;;;;;5052837;28;20481;-85
2021/04/09 01:06:19;;;;;;;13.60;7.43;;;8.50;39.30;;;;;;5048643;28;20445;-85
2021/04/09 01:08:46;;;;;;;15.10;7.90;;;8.10;39.00;;;;;;5047960;28;20862;-85
2021/04/09 01:11:12;;;;;;;9.93;7.30;;;8.20;40.60;;;;;;5046439;28;20513;-86
2021/04/09 01:13:39;;;;;;;13.50;6.93;;;8.40;39.60;;;;;;5045793;28;20508;-86
2021/04/09 01:16:11;;;;;;;12.03;7.50;;;9.10;39.90;;;;;;5044935;28;20504;-85
2021/04/09 01:18:44;;;;;;;14.10;7.63;;;9.50;39.60;;;;;;5044227;28;20456;-85
2021/04/09 01:21:34;;;;;;;10.97;7.10;;;9.40;37.40;;;;;;5044591;28;20512;-85
2021/04/09 01:24:19;;;;;;;16.77;7.60;;;10.00;38.40;;;;;;5043307;28;20563;-85
2021/04/09 01:27:24;;;;;;;11.37;7.07;;;10.40;37.50;;;;;;5040791;28;20409;-85
2021/04/09 01:30:32;;;;;;;11.90;7.17;;;10.40;37.00;;;;;;5043982;28;20484;-85
2021/04/09 01:33:00;;;;;;;16.07;8.00;;;10.70;37.10;;;;;;5042567;28;20496;-86
2021/04/09 01:35:29;;;;;;;10.10;6.23;;;9.70;33.90;;;;;;5041325;28;20521;-85
2021/04/09 01:38:00;;;;;;;15.17;7.43;;;9.10;38.00;;;;;;5041563;28;20520;-86
2021/04/09 01:40:32;;;;;;;13.03;6.60;;;8.70;37.40;;;;;;5042727;28;20469;-85
2021/04/09 01:43:02;;;;;;;14.50;7.63;;;8.40;38.10;;;;;;5044061;28;20470;-86
2021/04/09 01:45:33;;;;;;;20.27;7.30;;;7.90;40.20;;;;;;5041283;28;20460;-86
2021/04/09 01:48:01;;;;;;;13.23;6.23;;;8.40;40.80;;;;;;5041889;28;20429;-85
2021/04/09 01:50:30;;;;;;;12.67;7.73;;;8.80;41.50;;;;;;5041925;28;20464;-86
2021/04/09 01:52:58;;;;;;;14.33;7.83;;;9.60;40.30;;;;;;5042133;28;20461;-86
2021/04/09 01:55:26;;;;;;;11.77;7.47;;;10.00;38.40;;;;;;5043515;28;20450;-85
2021/04/09 01:57:54;;;;;;;11.60;7.63;;;10.40;38.40;;;;;;5042042;28;20597;-85
2021/04/09 02:00:24;;;;;;;13.03;7.07;;;10.60;37.90;;;;;;5040366;28;20456;-86
2021/04/09 02:02:53;;;;;;;12.17;7.20;;;10.50;36.80;;;;;;5041888;28;20465;-86
2021/04/09 02:05:22;;;;;;;12.60;7.00;;;10.80;37.40;;;;;;5041712;28;20444;-85
2021/04/09 02:07:51;;;;;;;10.23;6.87;;;11.00;37.40;;;;;;5043364;28;20452;-85
2021/04/09 02:10:20;;;;;;;9.53;6.63;;;11.40;34.60;;;;;;5040782;28;20464;-86
2021/04/09 02:12:47;;;;;;;12.70;6.70;;;10.30;34.30;;;;;;5038944;28;20492;-86
2021/04/09 02:15:19;;;;;;;11.50;6.87;;;10.30;35.00;;;;;;5043324;28;20520;-85
2021/04/09 02:17:46;;;;;;;12.63;7.30;;;10.10;35.50;;;;;;5045082;28;20465;-85
2021/04/09 02:20:15;;;;;;;10.73;6.20;;;10.50;35.90;;;;;;5042244;28;20487;-86
2021/04/09 02:22:43;;;;;;;14.43;7.57;;;10.50;36.20;;;;;;5042716;28;20526;-85
2021/04/09 02:25:11;;;;;;;10.90;6.50;;;10.70;36.10;;;;;;5044636;28;20822;-86
2021/04/09 02:27:38;;;;;;;14.20;7.53;;;10.90;36.20;;;;;;5045339;28;20437;-85
2021/04/09 02:30:06;;;;;;;10.63;6.13;;;11.10;34.40;;;;;;5043107;28;20429;-85
2021/04/09 02:32:32;;;;;;;13.63;6.37;;;10.60;35.10;;;;;;5042412;28;20540;-86
2021/04/09 02:34:58;;;;;;;13.47;8.30;;;10.30;34.60;;;;;;5042522;28;20536;-86
2021/04/09 02:37:25;;;;;;;11.33;6.50;;;9.70;36.80;;;;;;5042102;28;20488;-86
2021/04/09 02:39:58;;;;;;;9.90;7.07;;;9.50;37.20;;;;;;5043400;28;20449;-86
2021/04/09 02:42:25;;;;;;;12.60;7.40;;;9.10;38.10;;;;;;5044441;28;20579;-86
2021/04/09 02:44:54;;;;;;;13.33;8.10;;;9.20;37.80;;;;;;5042368;28;20481;-85
2021/04/09 02:47:23;;;;;;;13.90;7.97;;;9.10;37.90;;;;;;5043888;28;20440;-86
2021/04/09 02:49:58;;;;;;;12.80;6.30;;;8.80;35.40;;;;;;5044274;28;20441;-86
2021/04/09 02:52:31;;;;;;;14.53;8.20;;;9.10;39.40;;;;;;5043285;28;20519;-85
2021/04/09 02:55:02;;;;;;;14.77;7.67;;;8.90;36.30;;;;;;5042361;28;20938;-85
2021/04/09 02:57:30;;;;;;;12.00;7.00;;;8.60;40.30;;;;;;5039792;28;20458;-85
2021/04/09 02:59:59;;;;;;;10.00;7.23;;;9.10;40.40;;;;;;5043030;28;20480;-85
2021/04/09 03:02:26;;;;;;;12.07;7.43;;;9.30;39.30;;;;;;5042813;28;20512;-86
2021/04/09 03:04:53;;;;;;;13.03;8.43;;;9.30;37.00;;;;;;5045068;28;20483;-85
2021/04/09 03:07:21;;;;;;;12.80;8.70;;;9.20;39.20;;;;;;5042177;28;20483;-85
2021/04/09 03:09:47;;;;;;;16.53;8.70;;;8.20;36.10;;;;;;5044059;28;20465;-86
2021/04/09 03:12:16;;;;;;;19.60;9.57;;;7.70;39.30;;;;;;5047016;28;20476;-85
2021/04/09 03:14:44;;;;;;;20.13;9.40;;;7.20;38.20;;;;;;5045348;28;20469;-85
2021/04/09 03:17:16;;;;;;;18.63;8.37;;;6.80;39.30;;;;;;5041025;28;20563;-85
2021/04/09 03:19:42;;;;;;;14.13;7.70;;;7.00;41.60;;;;;;5044502;28;20818;-86
2021/04/09 03:22:10;;;;;;;30.40;10.10;;;7.10;42.50;;;;;;5044181;28;20525;-85
2021/04/09 03:24:37;;;;;;;11.07;7.30;;;7.50;39.50;;;;;;5040647;28;20467;-85
2021/04/09 03:27:04;;;;;;;11.53;6.73;;;8.10;41.70;;;;;;5042671;28;20524;-85
2021/04/09 03:29:32;;;;;;;13.00;7.33;;;9.20;42.70;;;;;;5040099;28;20847;-85
2021/04/09 03:31:58;;;;;;;12.70;7.27;;;9.80;40.90;;;;;;5038817;28;20464;-86
2021/04/09 03:34:24;;;;;;;11.67;7.80;;;10.10;38.90;;;;;;5041640;28;20472;-86
2021/04/09 03:36:51;;;;;;;13.77;7.33;;;10.40;38.40;;;;;;5042277;28;20607;-86
2021/04/09 03:39:17;;;;;;;14.93;7.50;;;10.50;37.80;;;;;;5043661;28;20453;-85
2021/04/09 03:41:44;;;;;;;12.97;7.80;;;10.20;36.50;;;;;;5043423;28;20433;-85
2021/04/09 03:44:10;;;;;;;13.77;8.13;;;10.40;38.00;;;;;;5039512;28;20454;-85
2021/04/09 03:46:37;;;;;;;15.70;8.90;;;10.20;35.10;;;;;;5041311;28;20516;-85
2021/04/09 03:49:04;;;;;;;13.30;8.03;;;9.70;34.00;;;;;;5041351;28;20495;-86
2021/04/09 03:51:31;;;;;;;11.93;7.93;;;9.00;38.10;;;;;;5039798;28;20453;-86
2021/04/09 03:53:57;;;;;;;16.40;8.87;;;8.60;37.30;;;;;;5040480;28;20499;-85
2021/04/09 03:56:24;;;;;;;17.20;8.23;;;8.20;37.00;;;;;;5041747;28;20555;-85
2021/04/09 03:58:51;;;;;;;14.53;8.43;;;7.40;38.70;;;;;;5043277;28;20935;-86
2021/04/09 04:01:17;;;;;;;15.80;8.13;;;7.20;41.40;;;;;;5042520;28;20453;-85
2021/04/09 04:03:47;;;;;;;15.23;8.07;;;7.00;41.40;;;;;;5045958;28;21097;-85
2021/04/09 04:06:14;;;;;;;14.30;8.70;;;7.10;40.50;;;;;;5050493;28;20421;-85
2021/04/09 04:08:41;;;;;;;13.57;8.53;;;6.70;39.90;;;;;;5049361;28;20452;-85
2021/04/09 04:11:07;;;;;;;15.40;8.17;;;7.00;42.10;;;;;;5043919;28;20819;-85
2021/04/09 04:13:33;;;;;;;15.83;7.37;;;7.80;41.70;;;;;;5042417;28;20461;-86
2021/04/09 04:16:00;;;;;;;12.67;7.53;;;8.50;41.50;;;;;;5041818;28;20461;-86
2021/04/09 04:18:26;;;;;;;14.87;8.10;;;8.20;41.00;;;;;;5047924;28;20437;-86
2021/04/09 04:20:54;;;;;;;12.80;6.90;;;8.10;38.60;;;;;;5048837;28;21090;-85
2021/04/09 04:23:20;;;;;;;11.07;7.50;;;8.70;40.70;;;;;;5048175;28;20514;-86
2021/04/09 04:25:47;;;;;;;15.40;7.60;;;9.40;39.90;;;;;;5053333;28;20393;-85
2021/04/09 04:28:13;;;;;;;12.23;7.77;;;9.00;37.80;;;;;;5054890;28;20441;-86
2021/04/09 04:30:40;;;;;;;13.97;8.40;;;8.90;39.80;;;;;;5055005;28;20434;-84
2021/04/09 04:33:06;;;;;;;11.13;7.50;;;8.30;37.00;;;;;;5058255;28;20461;-85
2021/04/09 04:35:33;;;;;;;13.93;7.70;;;8.30;37.50;;;;;;5058069;28;20449;-85
2021/04/09 04:38:00;;;;;;;16.77;8.23;;;8.30;38.20;;;;;;5057471;28;20492;-85
2021/04/09 04:40:27;;;;;;;12.20;7.10;;;8.50;39.30;;;;;;5057590;28;20453;-85
2021/04/09 04:42:53;;;;;;;14.97;8.10;;;8.30;38.90;;;;;;5058307;28;20453;-85
2021/04/09 04:45:20;;;;;;;12.03;7.47;;;8.50;38.70;;;;;;5055122;28;20432;-86
2021/04/09 04:47:46;;;;;;;13.60;7.87;;;8.20;39.50;;;;;;5044430;28;20765;-85
2021/04/09 04:50:13;;;;;;;17.83;8.20;;;8.00;39.30;;;;;;5045202;28;20437;-85
2021/04/09 04:52:39;;;;;;;15.63;8.40;;;8.30;41.00;;;;;;5045411;28;20790;-85
2021/04/09 04:55:08;;;;;;;17.53;8.30;;;8.60;39.20;;;;;;5045905;28;20887;-86
2021/04/09 04:57:34;;;;;;;12.70;8.17;;;9.10;40.70;;;;;;5046001;28;20538;-85
2021/04/09 05:00:01;;;;;;;20.30;7.70;;;9.20;36.20;;;;;;5044412;28;20445;-86
2021/04/09 05:02:27;;;;;;;17.50;9.27;;;9.40;39.80;;;;;;5043149;28;20495;-86
2021/04/09 05:04:54;;;;;;;13.93;7.90;;;9.50;33.70;;;;;;5043952;28;20524;-87
2021/04/09 05:07:20;;;;;;;12.03;8.07;;;8.00;35.50;;;;;;5046182;28;20437;-85
2021/04/09 05:09:46;;;;;;;19.57;9.03;;;7.40;38.60;;;;;;5045406;28;20479;-86
2021/04/09 05:12:14;;;;;;;15.33;8.50;;;7.30;38.20;;;;;;5046579;28;20505;-86
2021/04/09 05:14:40;;;;;;;18.00;8.77;;;7.60;39.60;;;;;;5047194;28;20463;-85
2021/04/09 05:17:07;;;;;;;17.40;8.60;;;7.30;36.80;;;;;;5047846;28;20559;-86
2021/04/09 05:19:33;;;;;;;28.37;10.03;;;6.70;40.30;;;;;;5053631;28;20812;-86
2021/04/09 05:22:00;;;;;;;17.50;9.20;;;7.90;40.30;;;;;;5053460;28;20452;-86
2021/04/09 05:24:26;;;;;;;15.20;8.33;;;8.20;37.10;;;;;;5046629;28;20498;-85
2021/04/09 05:26:53;;;;;;;14.60;9.50;;;8.40;39.10;;;;;;5043323;28;20489;-86
2021/04/09 05:29:20;;;;;;;14.73;7.90;;;8.90;37.50;;;;;;5045840;28;20475;-86
2021/04/09 05:31:46;;;;;;;12.10;8.13;;;9.40;38.20;;;;;;5046031;28;20532;-85
2021/04/09 05:34:13;;;;;;;13.60;7.33;;;9.90;34.70;;;;;;5043596;28;20497;-86
2021/04/09 05:36:39;;;;;;;14.70;8.60;;;10.70;37.70;;;;;;5043158;28;20817;-85
2021/04/09 05:39:06;;;;;;;15.90;8.97;;;11.50;33.20;;;;;;5046597;28;20449;-86
2021/04/09 05:41:32;;;;;;;11.70;7.30;;;11.70;31.40;;;;;;5044270;28;20487;-85
2021/04/09 05:43:59;;;;;;;16.53;8.37;;;11.80;30.70;;;;;;5043380;28;20465;-86
2021/04/09 05:46:26;;;;;;;16.13;9.37;;;11.20;30.00;;;;;;5045650;28;20841;-85
2021/04/09 05:48:52;;;;;;;16.30;8.50;;;10.30;30.70;;;;;;5044204;28;20532;-86
2021/04/09 05:51:19;;;;;;;20.23;9.80;;;10.70;30.70;;;;;;5037622;28;20437;-86
2021/04/09 05:53:45;;;;;;;17.90;7.70;;;11.40;30.10;;;;;;5046850;28;20475;-85
2021/04/09 05:56:12;;;;;;;14.10;8.50;;;12.20;31.90;;;;;;5044038;28;20448;-85
2021/04/09 05:58:38;;;;;;;11.70;7.50;;;12.60;28.30;;;;;;5042116;28;20543;-85
2021/04/09 06:01:05;;;;;;;21.20;9.30;;;12.60;28.60;;;;;;5042850;28;20530;-85
2021/04/09 06:03:32;;;;;;;15.90;8.90;;;12.80;28.60;;;;;;5042504;28;20551;-85
2021/04/09 06:05:59;;;;;;;18.73;9.30;;;12.80;27.30;;;;;;5043637;28;20452;-85
2021/04/09 06:08:25;;;;;;;15.80;7.60;;;12.50;27.90;;;;;;5041059;28;20477;-86
2021/04/09 06:10:51;;;;;;;16.10;7.53;;;11.80;29.90;;;;;;5042462;28;20535;-85
2021/04/09 06:13:18;;;;;;;13.43;8.40;;;10.60;31.30;;;;;;5041361;28;20499;-86
2021/04/09 06:15:44;;;;;;;24.83;9.40;;;10.60;30.60;;;;;;5041168;28;20445;-85
2021/04/09 06:18:11;;;;;;;11.53;7.57;;;10.20;29.80;;;;;;5040980;28;20510;-85
2021/04/09 06:20:38;;;;;;;14.73;8.60;;;10.50;33.50;;;;;;5040400;28;20481;-85
2021/04/09 06:23:05;;;;;;;13.70;7.60;;;10.70;30.60;;;;;;5040477;28;20473;-85
2021/04/09 06:25:31;;;;;;;14.17;8.67;;;10.90;31.20;;;;;;5039818;28;20550;-85
2021/04/09 06:27:58;;;;;;;14.70;9.10;;;10.70;30.70;;;;;;5040327;28;20445;-85
2021/04/09 06:30:25;;;;;;;15.37;8.33;;;10.60;30.90;;;;;;5043000;28;20534;-85
2021/04/09 06:32:51;;;;;;;18.20;9.90;;;10.60;32.00;;;;;;5040874;28;20972;-85
2021/04/09 06:35:18;;;;;;;12.50;8.33;;;10.70;30.40;;;;;;5040495;28;20955;-85
2021/04/09 06:37:45;;;;;;;14.90;8.47;;;11.20;30.80;;;;;;5040704;28;20483;-86
2021/04/09 06:40:14;;;;;;;16.70;8.93;;;11.70;30.50;;;;;;5039685;28;20460;-85
2021/04/09 06:42:40;;;;;;;16.27;7.20;;;11.90;29.20;;;;;;5038178;28;20810;-85
2021/04/09 06:45:08;;;;;;;22.07;8.73;;;12.40;31.00;;;;;;5035514;28;20480;-85
2021/04/09 06:47:35;;;;;;;10.80;7.20;;;13.10;27.80;;;;;;5035383;28;20477;-85
2021/04/09 06:50:02;;;;;;;20.27;9.50;;;13.20;29.40;;;;;;5034757;28;20477;-85
2021/04/09 06:52:29;;;;;;;18.30;7.13;;;12.80;27.80;;;;;;5034642;28;20560;-85
2021/04/09 06:54:59;;;;;;;10.77;7.40;;;13.20;30.00;;;;;;5034210;28;20477;-85
2021/04/09 06:57:28;;;;;;;16.23;9.00;;;13.60;29.50;;;;;;5035618;28;20516;-85
2021/04/09 06:59:57;;;;;;;18.20;10.47;;;13.80;27.90;;;;;;5035143;28;20850;-85
2021/04/09 07:02:24;;;;;;;15.00;9.00;;;13.70;28.00;;;;;;5035030;28;20457;-85
2021/04/09 07:04:50;;;;;;;16.10;8.87;;;13.90;28.50;;;;;;5037389;28;20525;-85
2021/04/09 07:07:18;;;;;;;14.53;8.63;;;14.40;27.20;;;;;;5035006;28;20444;-85
2021/04/09 07:09:45;;;;;;;22.20;9.33;;;15.00;27.40;;;;;;5034257;28;21005;-85
2021/04/09 07:12:22;;;;;;;15.50;8.27;;;15.00;27.50;;;;;;5034634;28;20519;-85
2021/04/09 07:14:49;;;;;;;15.87;10.03;;;15.60;26.80;;;;;;5034534;28;20472;-85
2021/04/09 07:17:25;;;;;;;19.30;8.30;;;15.80;26.10;;;;;;5035254;28;20496;-85
2021/04/09 07:20:06;;;;;;;12.23;8.70;;;15.90;27.10;;;;;;5042724;28;20905;-85
2021/04/09 07:22:32;;;;;;;18.53;10.27;;;15.60;26.70;;;;;;5043456;28;20479;-84
2021/04/09 07:25:11;;;;;;;29.10;10.70;;;15.80;26.50;;;;;;5043585;28;20457;-84
2021/04/09 07:27:40;;;;;;;13.13;8.77;;;16.00;25.70;;;;;;5041421;28;20783;-84
2021/04/09 07:30:08;;;;;;;13.27;7.10;;;16.20;26.00;;;;;;5035782;28;20457;-85
2021/04/09 07:32:35;;;;;;;16.43;6.60;;;17.10;26.00;;;;;;5035293;28;20527;-85
2021/04/09 07:35:05;;;;;;;17.60;8.70;;;17.70;24.50;;;;;;5035144;28;20452;-85
2021/04/09 07:37:34;;;;;;;14.33;8.47;;;17.90;24.60;;;;;;5037667;28;20485;-85
2021/04/09 07:40:02;;;;;;;13.83;7.57;;;17.50;23.30;;;;;;5035328;28;20584;-86
2021/04/09 07:42:31;;;;;;;17.00;8.07;;;17.80;24.10;;;;;;5034974;28;20461;-86
2021/04/09 07:45:00;;;;;;;10.67;6.93;;;17.40;23.30;;;;;;5033809;28;20469;-86
2021/04/09 07:47:27;;;;;;;12.83;7.90;;;18.10;24.10;;;;;;5033528;28;20445;-86
2021/04/09 07:50:11;;;;;;;15.03;6.87;;;18.00;23.20;;;;;;5033743;28;20477;-85
2021/04/09 07:52:43;;;;;;;12.97;7.60;;;18.20;23.40;;;;;;5033493;28;20495;-86
2021/04/09 07:55:21;;;;;;;14.67;7.70;;;18.40;22.40;;;;;;5033589;28;20469;-85
2021/04/09 07:57:48;;;;;;;11.03;7.40;;;18.60;22.20;;;;;;5033441;28;20543;-85
2021/04/09 08:00:26;;;;;;;11.47;6.57;;;18.60;22.10;;;;;;5033268;28;21006;-85
2021/04/09 08:02:54;;;;;;;10.20;6.93;;;18.80;22.20;;;;;;5033058;28;20449;-85
2021/04/09 08:05:23;;;;;;;9.20;5.43;;;18.90;22.10;;;;;;5034474;28;20481;-85
2021/04/09 08:07:50;;;;;;;9.53;5.90;;;18.90;21.90;;;;;;5037702;28;20441;-86
2021/04/09 08:10:18;;;;;;;15.60;6.87;;;18.50;21.90;;;;;;5037930;28;20465;-85
2021/04/09 08:12:52;;;;;;;12.13;7.50;;;17.60;22.50;;;;;;5037400;28;20473;-85
2021/04/09 08:15:22;;;;;;;12.33;6.60;;;17.10;23.60;;;;;;5038044;28;20819;-85
2021/04/09 08:18:04;;;;;;;15.70;6.67;;;16.50;23.70;;;;;;5037944;28;20500;-85
2021/04/09 08:20:33;;;;;;;11.40;6.80;;;17.10;23.60;;;;;;5050120;28;20449;-85
2021/04/09 08:23:02;;;;;;;11.73;6.23;;;17.80;22.50;;;;;;5037053;28;20547;-86
2021/04/09 08:25:29;;;;;;;12.53;6.10;;;18.20;23.10;;;;;;5037103;28;20536;-86
2021/04/09 08:27:58;;;;;;;7.90;5.73;;;18.50;22.20;;;;;;5037055;28;20527;-85
2021/04/09 08:30:27;;;;;;;7.90;5.37;;;17.60;23.20;;;;;;5037144;28;20540;-85
2021/04/09 08:32:55;;;;;;;9.73;5.40;;;17.30;21.80;;;;;;5036636;28;20464;-85
2021/04/09 08:35:22;;;;;;;11.03;5.20;;;17.60;22.40;;;;;;5037324;28;20460;-85
2021/04/09 08:37:49;;;;;;;26.03;11.37;;;17.60;22.40;;;;;;5037084;28;20477;-85
2021/04/09 08:40:17;;;;;;;11.40;7.00;;;17.50;21.30;;;;;;5036476;28;20985;-85
2021/04/09 08:42:44;;;;;;;12.03;8.13;;;17.30;22.60;;;;;;5036716;28;20544;-86
2021/04/09 08:45:12;;;;;;;9.90;6.20;;;17.40;22.00;;;;;;5036785;28;20449;-85
2021/04/09 08:47:40;;;;;;;14.27;6.30;;;17.20;23.30;;;;;;5037550;28;20449;-85
2021/04/09 08:50:09;;;;;;;13.80;7.10;;;16.80;24.80;;;;;;5036545;28;20456;-85
2021/04/09 08:52:39;;;;;;;9.97;6.60;;;16.80;23.50;;;;;;5037103;28;20497;-85
2021/04/09 08:55:07;;;;;;;13.23;6.50;;;16.60;23.60;;;;;;5037268;28;20460;-85
2021/04/09 08:57:35;;;;;;;11.83;7.00;;;17.10;23.50;;;;;;5036661;28;20515;-85
2021/04/09 09:00:14;;;;;;;15.47;7.30;;;17.30;22.10;;;;;;5036559;28;20535;-85
2021/04/09 09:02:43;;;;;;;8.87;5.87;;;17.00;22.10;;;;;;5037054;28;20532;-85
2021/04/09 09:05:13;;;;;;;11.07;6.73;;;16.60;23.30;;;;;;5050957;28;20438;-85
2021/04/09 09:08:07;;;;;;;10.80;5.83;;;16.50;21.70;;;;;;5053604;28;20426;-85
2021/04/09 09:10:55;;;;;;;19.53;6.03;;;16.70;22.90;;;;;;5036527;28;20761;-85
2021/04/09 09:13:29;;;;;;;15.10;6.67;;;17.20;24.40;;;;;;5036493;28;20616;-86
2021/04/09 09:16:12;;;;;;;15.00;6.43;;;17.00;22.40;;;;;;5036451;28;20950;-85
2021/04/09 09:18:58;;;;;;;9.23;5.40;;;16.40;23.00;;;;;;5036658;28;21036;-85
2021/04/09 09:21:36;;;;;;;10.80;5.60;;;17.20;25.40;;;;;;5036085;28;20418;-86
2021/04/09 09:24:05;;;;;;;12.10;5.70;;;17.80;23.00;;;;;;5035952;28;20993;-86
2021/04/09 09:26:35;;;;;;;12.40;6.30;;;17.80;23.20;;;;;;5036404;28;21003;-86
2021/04/09 09:29:16;;;;;;;12.20;6.47;;;17.40;22.20;;;;;;5035642;28;20434;-86
2021/04/09 09:31:54;;;;;;;20.50;6.13;;;17.70;22.20;;;;;;5036638;28;20422;-85
2021/04/09 09:34:39;;;;;;;7.97;5.20;;;18.00;23.20;;;;;;5057472;28;20421;-86
2021/04/09 09:37:10;;;;;;;11.00;6.37;;;17.40;22.20;;;;;;5056393;28;20477;-86
2021/04/09 09:39:39;;;;;;;13.27;6.10;;;17.50;22.90;;;;;;5040255;28;20467;-86
2021/04/09 09:42:09;;;;;;;11.40;5.97;;;17.70;22.80;;;;;;5035933;28;20876;-87
2021/04/09 09:44:42;;;;;;;9.47;6.20;;;18.10;22.30;;;;;;5035953;28;20433;-86
2021/04/09 09:47:19;;;;;;;17.40;6.10;;;18.30;21.50;;;;;;5035736;28;20523;-87
2021/04/09 09:50:25;;;;;;;15.30;5.40;;;18.40;21.60;;;;;;5036123;28;20436;-86
2021/04/09 09:52:58;;;;;;;11.73;6.07;;;18.40;21.90;;;;;;5047475;28;20461;-86
2021/04/09 09:55:27;;;;;;;14.33;6.33;;;18.60;21.40;;;;;;5054119;28;20527;-86
2021/04/09 09:57:55;;;;;;;14.20;5.40;;;18.10;21.50;;;;;;5036047;28;21009;-86
2021/04/09 10:00:27;;;;;;;9.30;6.20;;;18.50;23.00;;;;;;5035537;28;20440;-86
2021/04/09 10:03:12;;;;;;;15.47;6.10;;;18.90;21.70;;;;;;5035596;28;20485;-87
2021/04/09 10:05:40;;;;;;;15.63;5.37;;;18.90;21.60;;;;;;5035530;28;20457;-87
2021/04/09 10:08:08;;;;;;;9.70;5.67;;;19.10;20.90;;;;;;5035407;28;20537;-86
2021/04/09 10:10:37;;;;;;;12.03;5.40;;;19.20;21.40;;;;;;5035420;28;20579;-86
2021/04/09 10:13:18;;;;;;;16.23;6.17;;;19.00;21.20;;;;;;5035552;28;20544;-87
2021/04/09 10:15:44;;;;;;;13.50;5.60;;;18.90;21.40;;;;;;5035259;28;20481;-87
2021/04/09 10:18:11;;;;;;;10.63;5.57;;;19.10;21.80;;;;;;5034782;28;20481;-87
2021/04/09 10:20:38;;;;;;;12.27;5.20;;;19.10;21.60;;;;;;5035381;28;20484;-87
2021/04/09 10:23:05;;;;;;;13.07;6.17;;;19.10;21.10;;;;;;5035438;28;20555;-87
2021/04/09 10:25:34;;;;;;;13.90;5.67;;;19.10;21.30;;;;;;5035790;28;20476;-87
2021/04/09 10:28:00;;;;;;;7.80;4.50;;;19.10;21.50;;;;;;5036073;28;20436;-86
2021/04/09 10:30:28;;;;;;;19.03;8.60;;;19.50;22.70;;;;;;5035059;28;20799;-86
2021/04/09 10:32:55;;;;;;;9.60;5.03;;;19.30;20.60;;;;;;5034849;28;20501;-86
2021/04/09 10:35:23;;;;;;;15.83;4.37;;;18.90;21.00;;;;;;5036053;28;20918;-85
2021/04/09 10:37:49;;;;;;;8.57;5.37;;;18.50;22.20;;;;;;5036362;28;20568;-85
2021/04/09 10:40:16;;;;;;;9.73;5.70;;;18.10;20.90;;;;;;5044127;28;20464;-85
2021/04/09 10:42:58;;;;;;;10.17;5.83;;;18.40;21.40;;;;;;5057020;28;20465;-85
2021/04/09 10:45:25;;;;;;;13.13;5.33;;;18.40;21.50;;;;;;5053014;28;20422;-86
2021/04/09 10:47:53;;;;;;;11.33;5.50;;;18.90;21.40;;;;;;5034894;28;20504;-86
2021/04/09 10:50:20;;;;;;;16.33;5.43;;;19.20;20.80;;;;;;5034798;28;20817;-86
2021/04/09 10:52:46;;;;;;;26.40;6.90;;;19.40;20.70;;;;;;5034402;28;20453;-86
2021/04/09 10:55:14;;;;;;;10.20;5.43;;;19.70;20.50;;;;;;5034008;28;20481;-86
2021/04/09 10:57:40;;;;;;;7.43;5.13;;;19.80;21.80;;;;;;5033839;28;21079;-86
2021/04/09 11:00:10;;;;;;;11.73;5.00;;;20.00;20.40;;;;;;5034369;28;20452;-86
2021/04/09 11:02:38;;;;;;;8.07;5.20;;;20.30;20.10;;;;;;5034116;28;20544;-86
2021/04/09 11:05:06;;;;;;;21.00;4.90;;;20.20;20.70;;;;;;5033887;28;20453;-86
2021/04/09 11:07:43;;;;;;;6.23;4.10;;;20.20;20.30;;;;;;5035059;28;20483;-86
2021/04/09 11:10:15;;;;;;;6.17;4.30;;;20.50;18.50;;;;;;5034505;28;20448;-86
2021/04/09 11:12:46;;;;;;;9.60;4.20;;;20.00;19.10;;;;;;5034312;28;20503;-86
2021/04/09 11:15:17;;;;;;;6.37;3.60;;;20.20;19.70;;;;;;5033994;28;20414;-86
2021/04/09 11:17:54;;;;;;;6.77;3.53;;;20.40;19.20;;;;;;5035223;28;20504;-86
2021/04/09 11:20:22;;;;;;;9.90;3.90;;;20.40;19.80;;;;;;5034699;28;20511;-86
2021/04/09 11:23:00;;;;;;;5.67;4.10;;;20.60;19.00;;;;;;5033866;28;20465;-86
2021/04/09 11:25:31;;;;;;;6.83;3.50;;;20.90;18.00;;;;;;5033719;28;21009;-86
2021/04/09 11:27:58;;;;;;;12.93;3.77;;;21.00;18.70;;;;;;5034256;28;20425;-86
2021/04/09 11:30:29;;;;;;;9.03;4.07;;;20.90;17.80;;;;;;5044422;28;20554;-85
2021/04/09 11:32:55;;;;;;;10.00;3.77;;;20.90;17.40;;;;;;5052616;28;20469;-85
2021/04/09 11:35:23;;;;;;;16.93;6.30;;;20.80;20.40;;;;;;5035372;28;20441;-85
2021/04/09 11:37:52;;;;;;;9.23;3.20;;;21.10;17.70;;;;;;5033850;28;20519;-85
2021/04/09 11:40:34;;;;;;;7.93;4.30;;;20.70;17.50;;;;;;5033154;28;20452;-85
2021/04/09 11:43:00;;;;;;;8.90;3.20;;;20.60;18.00;;;;;;5033650;28;20496;-86
2021/04/09 11:45:38;;;;;;;5.43;3.63;;;20.80;18.10;;;;;;5034193;28;20517;-86
2021/04/09 11:48:22;;;;;;;5.63;3.00;;;20.90;18.70;;;;;;5033992;28;20768;-86
2021/04/09 11:50:49;;;;;;;17.43;3.77;;;20.80;16.90;;;;;;5033834;28;20440;-86
2021/04/09 11:53:15;;;;;;;22.67;3.40;;;20.90;17.30;;;;;;5034068;28;20901;-86
2021/04/09 11:55:42;;;;;;;6.63;3.50;;;21.10;17.20;;;;;;5034103;28;20453;-86
2021/04/09 11:58:18;;;;;;;7.97;3.27;;;21.30;17.40;;;;;;5034663;28;20581;-86
2021/04/09 12:00:55;;;;;;;8.40;3.30;;;21.40;16.10;;;;;;5034552;28;20414;-86
2021/04/09 12:03:36;;;;;;;11.73;2.87;;;20.70;17.60;;;;;;5034572;28;20496;-86
2021/04/09 12:06:10;;;;;;;6.60;3.23;;;19.90;15.90;;;;;;5034098;28;20468;-86
2021/04/09 12:08:36;;;;;;;7.77;3.33;;;20.20;16.10;;;;;;5036224;28;20421;-87
2021/04/09 12:11:03;;;;;;;9.60;3.53;;;20.50;16.70;;;;;;5033902;28;20460;-86
2021/04/09 12:13:30;;;;;;;11.17;3.57;;;20.80;16.10;;;;;;5037603;28;20465;-87
2021/04/09 12:15:57;;;;;;;5.27;3.30;;;20.90;15.90;;;;;;5034259;28;20531;-87
2021/04/09 12:18:26;;;;;;;17.07;3.90;;;21.10;16.10;;;;;;5036563;28;20568;-86
2021/04/09 12:20:52;;;;;;;9.20;3.00;;;20.80;15.10;;;;;;5036418;28;20441;-86
2021/04/09 12:23:19;;;;;;;6.73;2.90;;;20.80;17.10;;;;;;5033377;28;20479;-86
2021/04/09 12:25:45;;;;;;;5.40;3.40;;;21.10;15.80;;;;;;5034495;28;20429;-86
2021/04/09 12:28:12;;;;;;;7.00;3.17;;;21.20;15.80;;;;;;5033903;28;20441;-86
2021/04/09 12:30:38;;;;;;;5.57;3.70;;;21.30;14.90;;;;;;5033783;28;20556;-86
2021/04/09 12:33:06;;;;;;;5.10;3.37;;;21.10;16.10;;;;;;5032919;28;20556;-86
2021/04/09 12:35:32;;;;;;;8.13;3.73;;;21.10;15.80;;;;;;5033784;28;20434;-86
2021/04/09 12:37:59;;;;;;;5.63;3.50;;;20.60;15.10;;;;;;5034260;28;20539;-86
2021/04/09 12:40:25;;;;;;;6.17;3.20;;;20.40;17.70;;;;;;5035573;28;20832;-86
2021/04/09 12:42:52;;;;;;;3.87;2.70;;;20.80;15.30;;;;;;5032771;28;20469;-87
2021/04/09 12:45:18;;;;;;;5.20;2.97;;;21.30;15.60;;;;;;5037039;28;20536;-87
2021/04/09 12:47:44;;;;;;;7.90;3.13;;;21.60;14.80;;;;;;5036676;28;20461;-86
2021/04/09 12:50:12;;;;;;;11.13;2.97;;;21.20;14.90;;;;;;5033145;28;20457;-86